Terminal Aerodrome Forecast
Issued by NWS Portland, OR

Home | Current Version | Previous Version | Text Only | Print | Product List | Glossary On
Versions: 1 2 3 4 5 6 7 8 9 10 11 12 13 14 15 16 17 18
000
FTUS46 KPQR 291728
TAFEUG
TAF
KEUG 291728Z 2918/3018 18012KT P6SM -SHRA SCT025 OVC040
     FM292200 19011KT P6SM -SHRA SCT015 BKN025 OVC035
     FM300400 23009KT P6SM -SHRA BKN025 OVC035=

USA.gov is the U.S. government's official web portal to all federal, state and local government web resources and services.